Time;durP1;ratioP1;P1;durP2;ratioP2;P2;SDS_P1;SDS_P2;PMS_P1;PMS_P2;Temp;Humidity;BMP_temperature;BMP_pressure;BME280_temperature;BME280_humidity;BME280_pressure;Samples;Min_cycle;Max_cycle;Signal;HPM_P1;HPM_P2
2022/11/23 00:00:22;;;;;;;18.17;11.38;;;;;;;;;;6267970;28;20067;-66
2022/11/23 00:03:24;;;;;;;14.63;11.15;;;;;;;;;;6272783;28;20045;-69
2022/11/23 00:06:26;;;;;;;15.68;11.30;;;;;;;;;;6267340;28;20371;-67
2022/11/23 00:09:27;;;;;;;14.57;10.57;;;;;;;;;;6272310;28;20118;-66
2022/11/23 00:12:30;;;;;;;15.73;10.55;;;;;;;;;;6271098;28;20161;-63
2022/11/23 00:15:32;;;;;;;14.77;10.68;;;;;;;;;;6269912;28;20057;-65
2022/11/23 00:18:34;;;;;;;13.93;10.38;;;;;;;;;;6268857;28;20052;-65
2022/11/23 00:21:36;;;;;;;13.63;11.02;;;;;;;;;;6268298;28;20045;-64
2022/11/23 00:24:37;;;;;;;12.60;10.20;;;;;;;;;;6268594;28;20268;-66
2022/11/23 00:27:40;;;;;;;15.77;10.80;;;;;;;;;;6268759;28;20053;-67
2022/11/23 00:30:42;;;;;;;16.55;11.05;;;;;;;;;;6266433;28;20090;-67
2022/11/23 00:33:49;;;;;;;15.05;9.98;;;;;;;;;;6267382;28;20139;-66
2022/11/23 00:36:51;;;;;;;14.48;11.23;;;;;;;;;;6266500;28;20772;-67
2022/11/23 00:39:52;;;;;;;14.90;10.35;;;;;;;;;;6266312;28;20060;-68
2022/11/23 00:42:56;;;;;;;15.73;10.52;;;;;;;;;;6267274;28;20249;-74
2022/11/23 00:46:05;;;;;;;15.00;10.68;;;;;;;;;;6266687;28;20061;-68
2022/11/23 00:49:07;;;;;;;14.40;10.40;;;;;;;;;;6268848;28;20046;-69
2022/11/23 00:52:08;;;;;;;14.27;10.70;;;;;;;;;;6268482;28;20056;-70
2022/11/23 00:55:10;;;;;;;14.02;10.18;;;;;;;;;;6269410;28;20056;-69
2022/11/23 00:58:13;;;;;;;13.48;10.20;;;;;;;;;;6269049;28;20053;-68
2022/11/23 01:01:15;;;;;;;15.27;10.52;;;;;;;;;;6267302;28;20052;-69
2022/11/23 01:04:18;;;;;;;14.25;10.32;;;;;;;;;;6265095;28;20148;-69
2022/11/23 01:07:20;;;;;;;21.50;11.68;;;;;;;;;;6269369;28;20056;-67
2022/11/23 01:10:21;;;;;;;13.68;10.40;;;;;;;;;;6270780;28;20053;-69
2022/11/23 01:13:24;;;;;;;13.25;10.73;;;;;;;;;;6271280;28;20088;-67
2022/11/23 01:16:27;;;;;;;12.82;9.55;;;;;;;;;;6268974;28;20049;-68
2022/11/23 01:19:29;;;;;;;12.70;9.40;;;;;;;;;;6267278;28;20053;-68
2022/11/23 01:22:31;;;;;;;14.15;10.68;;;;;;;;;;6267566;28;20052;-69
2022/11/23 01:25:32;;;;;;;14.70;11.10;;;;;;;;;;6267931;28;20057;-68
2022/11/23 01:28:36;;;;;;;13.48;9.65;;;;;;;;;;6267749;28;20052;-68
2022/11/23 01:31:39;;;;;;;14.05;10.07;;;;;;;;;;6269919;28;20072;-69
2022/11/23 01:34:41;;;;;;;13.65;9.98;;;;;;;;;;6272166;28;20241;-68
2022/11/23 01:37:42;;;;;;;13.57;9.75;;;;;;;;;;6269053;28;20053;-69
2022/11/23 01:40:44;;;;;;;11.60;9.50;;;;;;;;;;6267819;28;20045;-68
2022/11/23 01:43:47;;;;;;;14.32;10.32;;;;;;;;;;6266759;28;20057;-68
2022/11/23 01:46:49;;;;;;;14.10;10.32;;;;;;;;;;6267135;28;20356;-68
2022/11/23 01:49:52;;;;;;;12.35;10.00;;;;;;;;;;6269228;28;20106;-69
2022/11/23 01:52:54;;;;;;;13.83;10.03;;;;;;;;;;6266298;28;20060;-68
2022/11/23 01:55:59;;;;;;;17.08;10.85;;;;;;;;;;6264901;28;20057;-68
2022/11/23 01:59:05;;;;;;;13.30;9.25;;;;;;;;;;6263722;28;20049;-69
2022/11/23 02:02:06;;;;;;;13.68;9.73;;;;;;;;;;6264162;28;20051;-69
2022/11/23 02:05:08;;;;;;;12.30;9.50;;;;;;;;;;6271766;28;20049;-67
2022/11/23 02:08:11;;;;;;;12.85;10.27;;;;;;;;;;6267468;28;20049;-69
2022/11/23 02:11:15;;;;;;;13.23;10.25;;;;;;;;;;6267404;28;20328;-68
2022/11/23 02:14:18;;;;;;;12.57;9.17;;;;;;;;;;6269534;28;20345;-69
2022/11/23 02:17:20;;;;;;;12.90;9.80;;;;;;;;;;6267333;28;20341;-68
2022/11/23 02:20:22;;;;;;;11.63;9.45;;;;;;;;;;6265223;28;20045;-69
2022/11/23 02:23:32;;;;;;;15.07;10.40;;;;;;;;;;6267715;28;20171;-69
2022/11/23 02:26:36;;;;;;;13.13;9.93;;;;;;;;;;6261564;28;20237;-67
2022/11/23 02:29:38;;;;;;;12.93;9.20;;;;;;;;;;6262200;28;20083;-69
2022/11/23 02:32:39;;;;;;;14.25;10.13;;;;;;;;;;6261951;28;20102;-67
2022/11/23 02:35:49;;;;;;;14.25;10.40;;;;;;;;;;6264728;28;20315;-69
2022/11/23 02:38:50;;;;;;;12.45;9.70;;;;;;;;;;6269006;28;20329;-69
2022/11/23 02:41:54;;;;;;;13.68;10.07;;;;;;;;;;6264319;28;20061;-68
2022/11/23 02:45:00;;;;;;;13.88;9.88;;;;;;;;;;6268430;28;20044;-69
2022/11/23 02:48:02;;;;;;;13.60;9.85;;;;;;;;;;6264519;28;20131;-66
2022/11/23 02:51:03;;;;;;;12.43;9.48;;;;;;;;;;6266595;28;20061;-69
2022/11/23 02:54:05;;;;;;;13.98;9.77;;;;;;;;;;6264305;28;22121;-69
2022/11/23 02:57:08;;;;;;;13.18;10.55;;;;;;;;;;6265433;28;20072;-68
2022/11/23 03:00:11;;;;;;;12.35;10.02;;;;;;;;;;6262990;28;20053;-69
2022/11/23 03:03:13;;;;;;;13.55;9.80;;;;;;;;;;6265731;28;20057;-68
2022/11/23 03:06:15;;;;;;;14.77;10.63;;;;;;;;;;6264196;28;22881;-68
2022/11/23 03:09:16;;;;;;;12.30;9.70;;;;;;;;;;6266802;28;20214;-68
2022/11/23 03:12:19;;;;;;;11.73;9.07;;;;;;;;;;6267562;28;20180;-69
2022/11/23 03:15:21;;;;;;;13.55;9.57;;;;;;;;;;6263203;28;20056;-68
2022/11/23 03:18:23;;;;;;;14.88;9.70;;;;;;;;;;6261140;28;20259;-68
2022/11/23 03:21:24;;;;;;;12.70;9.63;;;;;;;;;;6265448;28;20053;-68
2022/11/23 03:24:26;;;;;;;14.40;9.85;;;;;;;;;;6263859;28;20053;-68
2022/11/23 03:27:32;;;;;;;13.73;9.90;;;;;;;;;;6266838;28;20045;-69
2022/11/23 03:30:34;;;;;;;12.60;9.80;;;;;;;;;;6265898;28;20116;-68
2022/11/23 03:33:35;;;;;;;16.20;10.13;;;;;;;;;;6266427;28;20172;-69
2022/11/23 03:36:37;;;;;;;15.68;10.80;;;;;;;;;;6264902;28;20049;-69
2022/11/23 03:39:38;;;;;;;13.82;10.07;;;;;;;;;;6265874;28;20329;-68
2022/11/23 03:42:41;;;;;;;16.20;10.70;;;;;;;;;;6266656;28;20060;-68
2022/11/23 03:45:43;;;;;;;15.07;10.63;;;;;;;;;;6264145;28;20095;-67
2022/11/23 03:48:45;;;;;;;14.18;10.15;;;;;;;;;;6264516;28;20061;-68
2022/11/23 03:51:47;;;;;;;15.65;10.55;;;;;;;;;;6265874;28;20230;-69
2022/11/23 03:54:48;;;;;;;14.20;10.50;;;;;;;;;;6263555;28;20053;-68
2022/11/23 03:57:53;;;;;;;13.38;10.30;;;;;;;;;;6267965;28;20064;-69
2022/11/23 04:00:55;;;;;;;16.30;10.57;;;;;;;;;;6262979;28;20057;-67
2022/11/23 04:03:56;;;;;;;13.32;9.75;;;;;;;;;;6265780;28;20272;-68
2022/11/23 04:06:58;;;;;;;14.98;9.77;;;;;;;;;;6264427;28;20065;-69
2022/11/23 04:09:59;;;;;;;14.57;10.23;;;;;;;;;;6264880;28;20277;-68
2022/11/23 04:13:02;;;;;;;15.65;10.32;;;;;;;;;;6269466;28;20056;-68
2022/11/23 04:16:06;;;;;;;15.10;9.55;;;;;;;;;;6261518;28;20111;-68
2022/11/23 04:19:07;;;;;;;15.77;10.10;;;;;;;;;;6262291;28;20273;-69
2022/11/23 04:22:09;;;;;;;12.98;8.80;;;;;;;;;;6262690;28;20053;-68
2022/11/23 04:25:11;;;;;;;12.82;8.45;;;;;;;;;;6262971;28;20087;-68
2022/11/23 04:28:13;;;;;;;13.20;9.02;;;;;;;;;;6262794;28;20095;-69
2022/11/23 04:31:15;;;;;;;11.45;8.43;;;;;;;;;;6264694;28;20090;-67
2022/11/23 04:34:17;;;;;;;12.27;8.65;;;;;;;;;;6261859;28;20099;-67
2022/11/23 04:37:18;;;;;;;11.10;8.13;;;;;;;;;;6264939;28;20049;-67
2022/11/23 04:40:20;;;;;;;10.90;7.43;;;;;;;;;;6262173;28;20095;-67
2022/11/23 04:43:23;;;;;;;11.75;8.07;;;;;;;;;;6263447;28;20045;-66
2022/11/23 04:46:25;;;;;;;9.75;7.38;;;;;;;;;;6266004;28;20498;-65
2022/11/23 04:49:26;;;;;;;11.85;8.15;;;;;;;;;;6268420;28;20123;-67
2022/11/23 04:52:28;;;;;;;11.13;7.45;;;;;;;;;;6268315;28;20061;-67
2022/11/23 04:55:30;;;;;;;11.00;6.88;;;;;;;;;;6266853;28;20136;-66
2022/11/23 04:58:35;;;;;;;9.60;6.88;;;;;;;;;;6267320;28;20045;-64
2022/11/23 05:01:36;;;;;;;11.45;7.60;;;;;;;;;;6267868;28;20112;-66
2022/11/23 05:04:39;;;;;;;10.88;6.97;;;;;;;;;;6269375;28;20060;-68
2022/11/23 05:07:40;;;;;;;10.57;7.00;;;;;;;;;;6267489;28;20294;-68
2022/11/23 05:10:42;;;;;;;10.10;7.60;;;;;;;;;;6266766;28;20064;-67
2022/11/23 05:13:45;;;;;;;10.85;6.75;;;;;;;;;;6271008;28;20061;-67
2022/11/23 05:16:47;;;;;;;10.30;7.43;;;;;;;;;;6271523;28;20257;-67
2022/11/23 05:19:49;;;;;;;12.10;7.78;;;;;;;;;;6272217;28;20152;-68
2022/11/23 05:22:50;;;;;;;11.77;7.60;;;;;;;;;;6266534;28;20045;-67
2022/11/23 05:25:53;;;;;;;13.57;7.78;;;;;;;;;;6267078;28;20284;-67
2022/11/23 05:28:56;;;;;;;12.00;7.82;;;;;;;;;;6265365;28;20041;-67
2022/11/23 05:31:58;;;;;;;12.13;8.13;;;;;;;;;;6266534;28;20056;-68
2022/11/23 05:35:00;;;;;;;11.48;8.20;;;;;;;;;;6267891;28;20060;-67
2022/11/23 05:38:01;;;;;;;11.32;7.82;;;;;;;;;;6268081;28;20046;-67
2022/11/23 05:41:03;;;;;;;10.57;7.63;;;;;;;;;;6266465;28;20328;-67
2022/11/23 05:44:06;;;;;;;12.63;7.53;;;;;;;;;;6268252;28;20045;-67
2022/11/23 05:47:08;;;;;;;12.85;7.82;;;;;;;;;;6268205;28;20049;-68
2022/11/23 05:50:10;;;;;;;11.13;8.02;;;;;;;;;;6265938;28;20057;-68
2022/11/23 05:53:11;;;;;;;12.43;7.78;;;;;;;;;;6266078;28;20260;-68
2022/11/23 05:56:13;;;;;;;12.23;8.35;;;;;;;;;;6267161;28;20048;-68
2022/11/23 05:59:16;;;;;;;12.80;8.38;;;;;;;;;;6269444;28;20098;-68
2022/11/23 06:02:18;;;;;;;12.07;8.55;;;;;;;;;;6266571;28;20349;-67
2022/11/23 06:05:19;;;;;;;11.63;8.63;;;;;;;;;;6266631;28;20340;-67
2022/11/23 06:08:21;;;;;;;11.68;8.15;;;;;;;;;;6268317;28;20061;-69
2022/11/23 06:11:23;;;;;;;11.18;8.13;;;;;;;;;;6271483;28;20041;-69
2022/11/23 06:14:26;;;;;;;9.68;7.88;;;;;;;;;;6268230;28;20344;-68
2022/11/23 06:17:27;;;;;;;12.43;7.53;;;;;;;;;;6268003;28;20056;-68
2022/11/23 06:20:29;;;;;;;11.15;8.23;;;;;;;;;;6268401;28;20276;-68
2022/11/23 06:23:31;;;;;;;10.57;7.57;;;;;;;;;;6268961;28;20053;-69
2022/11/23 06:26:33;;;;;;;9.75;7.75;;;;;;;;;;6270506;28;20057;-68
2022/11/23 06:29:35;;;;;;;10.85;7.80;;;;;;;;;;6274426;28;20059;-68
2022/11/23 06:32:37;;;;;;;11.38;7.65;;;;;;;;;;6266343;28;20072;-68
2022/11/23 06:35:39;;;;;;;11.30;7.78;;;;;;;;;;6268722;28;20059;-68
2022/11/23 06:38:40;;;;;;;13.18;7.60;;;;;;;;;;6268242;28;20091;-69
2022/11/23 06:41:42;;;;;;;8.48;7.35;;;;;;;;;;6268480;28;20048;-69
2022/11/23 06:44:45;;;;;;;12.60;8.15;;;;;;;;;;6269613;28;20230;-69
2022/11/23 06:47:47;;;;;;;10.93;7.55;;;;;;;;;;6262545;28;20539;-68
2022/11/23 06:50:48;;;;;;;11.65;8.15;;;;;;;;;;6263004;28;20055;-69
2022/11/23 06:53:50;;;;;;;11.48;8.50;;;;;;;;;;6264222;28;20053;-69
2022/11/23 06:56:52;;;;;;;11.30;8.25;;;;;;;;;;6264070;28;20053;-69
2022/11/23 06:59:55;;;;;;;11.52;7.75;;;;;;;;;;6267045;28;20218;-69
2022/11/23 07:02:56;;;;;;;11.52;7.85;;;;;;;;;;6266014;28;20059;-69
2022/11/23 07:05:59;;;;;;;12.55;8.00;;;;;;;;;;6265323;28;20265;-69
2022/11/23 07:09:01;;;;;;;12.60;8.20;;;;;;;;;;6265442;28;20053;-69
2022/11/23 07:12:03;;;;;;;15.70;8.43;;;;;;;;;;6262460;28;20060;-69
2022/11/23 07:15:07;;;;;;;12.82;8.55;;;;;;;;;;6260048;28;20102;-72
2022/11/23 07:18:11;;;;;;;14.82;8.60;;;;;;;;;;6261237;28;20361;-70
2022/11/23 07:21:13;;;;;;;12.40;8.20;;;;;;;;;;6261583;28;20053;-70
2022/11/23 07:24:15;;;;;;;11.23;8.20;;;;;;;;;;6264427;28;20053;-70
2022/11/23 07:27:16;;;;;;;13.77;8.82;;;;;;;;;;6265796;28;20479;-71
2022/11/23 07:30:19;;;;;;;14.50;8.82;;;;;;;;;;6263029;28;20220;-71
2022/11/23 07:33:21;;;;;;;13.18;8.98;;;;;;;;;;6262393;28;20064;-70
2022/11/23 07:36:23;;;;;;;15.32;9.52;;;;;;;;;;6264295;28;20056;-70
2022/11/23 07:39:25;;;;;;;18.15;10.15;;;;;;;;;;6266194;28;20127;-70
2022/11/23 07:42:27;;;;;;;16.25;10.10;;;;;;;;;;6266481;28;20051;-70
2022/11/23 07:45:30;;;;;;;17.38;10.35;;;;;;;;;;6266887;28;20335;-72
2022/11/23 07:48:31;;;;;;;13.85;9.20;;;;;;;;;;6265522;28;20049;-71
2022/11/23 07:51:33;;;;;;;17.20;10.52;;;;;;;;;;6267409;28;20080;-71
2022/11/23 07:54:35;;;;;;;16.52;9.23;;;;;;;;;;6265116;28;20052;-71
2022/11/23 07:57:37;;;;;;;14.60;9.43;;;;;;;;;;6266517;28;20228;-71
2022/11/23 08:00:40;;;;;;;16.40;8.68;;;;;;;;;;6264959;28;20928;-72
2022/11/23 08:03:41;;;;;;;14.27;8.80;;;;;;;;;;6262049;28;20060;-70
2022/11/23 08:06:43;;;;;;;14.73;8.85;;;;;;;;;;6264355;28;20101;-71
2022/11/23 08:09:45;;;;;;;11.27;8.30;;;;;;;;;;6263614;28;20121;-70
2022/11/23 08:12:47;;;;;;;15.43;9.63;;;;;;;;;;6263217;28;20049;-70
2022/11/23 08:15:50;;;;;;;13.05;8.55;;;;;;;;;;6266419;28;20059;-71
2022/11/23 08:18:52;;;;;;;11.57;8.50;;;;;;;;;;6262669;28;20101;-71
2022/11/23 08:21:54;;;;;;;13.75;8.80;;;;;;;;;;6265027;28;20518;-71
2022/11/23 08:24:55;;;;;;;12.57;8.98;;;;;;;;;;6267344;28;20049;-69
2022/11/23 08:27:57;;;;;;;16.20;8.82;;;;;;;;;;6271077;28;20079;-71
2022/11/23 08:31:06;;;;;;;15.07;8.48;;;;;;;;;;6267336;28;20072;-70
2022/11/23 08:34:07;;;;;;;14.32;9.02;;;;;;;;;;6268657;28;20213;-72
2022/11/23 08:37:09;;;;;;;13.70;9.77;;;;;;;;;;6269365;28;20065;-71
2022/11/23 08:40:12;;;;;;;16.27;10.35;;;;;;;;;;6267095;28;20252;-71
2022/11/23 08:43:13;;;;;;;15.90;10.85;;;;;;;;;;6269642;28;20056;-71
2022/11/23 08:46:17;;;;;;;16.42;10.48;;;;;;;;;;6268209;28;20080;-70
2022/11/23 08:49:18;;;;;;;13.32;9.15;;;;;;;;;;6268694;28;20166;-72
2022/11/23 08:52:20;;;;;;;12.40;9.48;;;;;;;;;;6267134;28;20056;-71
2022/11/23 08:55:22;;;;;;;13.52;8.43;;;;;;;;;;6269609;28;20103;-68
2022/11/23 08:58:23;;;;;;;13.85;9.00;;;;;;;;;;6268949;28;20106;-70
2022/11/23 09:01:26;;;;;;;14.02;8.85;;;;;;;;;;6269927;28;20065;-70
2022/11/23 09:04:29;;;;;;;12.95;9.13;;;;;;;;;;6265776;28;20092;-69
2022/11/23 09:07:32;;;;;;;13.50;8.50;;;;;;;;;;6270007;28;20037;-70
2022/11/23 09:10:33;;;;;;;14.15;8.02;;;;;;;;;;6268363;28;20228;-70
2022/11/23 09:13:35;;;;;;;10.20;7.15;;;;;;;;;;6267378;28;20211;-69
2022/11/23 09:16:39;;;;;;;9.13;6.40;;;;;;;;;;6268760;28;20061;-70
2022/11/23 09:19:40;;;;;;;10.03;6.57;;;;;;;;;;6264990;28;20205;-71
2022/11/23 09:22:42;;;;;;;7.45;6.40;;;;;;;;;;6268144;28;20054;-69
2022/11/23 09:25:47;;;;;;;9.43;6.45;;;;;;;;;;6270491;28;20049;-71
2022/11/23 09:28:48;;;;;;;7.88;5.80;;;;;;;;;;6267147;28;20048;-71
2022/11/23 09:31:51;;;;;;;7.85;6.18;;;;;;;;;;6265855;28;20053;-69
2022/11/23 09:34:53;;;;;;;6.32;5.00;;;;;;;;;;6267122;28;20053;-71
2022/11/23 09:37:56;;;;;;;6.68;4.75;;;;;;;;;;6266944;28;20203;-71
2022/11/23 09:41:04;;;;;;;6.25;5.13;;;;;;;;;;6266953;28;20099;-71
2022/11/23 09:44:11;;;;;;;7.68;4.70;;;;;;;;;;6269667;28;20347;-71
2022/11/23 09:47:30;;;;;;;7.07;4.38;;;;;;;;;;6267389;28;20053;-71
2022/11/23 09:50:38;;;;;;;5.15;3.88;;;;;;;;;;6266341;28;20060;-71
2022/11/23 09:53:44;;;;;;;7.72;4.20;;;;;;;;;;6266415;28;20099;-72
2022/11/23 09:56:48;;;;;;;5.50;3.92;;;;;;;;;;6266489;28;20084;-71
2022/11/23 09:59:52;;;;;;;6.97;4.25;;;;;;;;;;6265911;28;20088;-71
2022/11/23 10:02:55;;;;;;;5.22;4.00;;;;;;;;;;6268324;28;20056;-70
2022/11/23 10:06:03;;;;;;;4.97;4.00;;;;;;;;;;6265822;28;20053;-71
2022/11/23 10:09:23;;;;;;;4.45;3.60;;;;;;;;;;6264854;28;20034;-72
2022/11/23 10:12:34;;;;;;;5.25;3.78;;;;;;;;;;6271728;28;20047;-71
2022/11/23 10:15:39;;;;;;;3.92;3.42;;;;;;;;;;6267067;28;20182;-71
2022/11/23 10:18:50;;;;;;;4.00;3.38;;;;;;;;;;6265713;28;20064;-70
2022/11/23 10:21:55;;;;;;;4.88;2.97;;;;;;;;;;6265018;28;20063;-72
2022/11/23 10:24:57;;;;;;;3.97;3.10;;;;;;;;;;6266676;28;20087;-69
2022/11/23 10:28:01;;;;;;;7.00;4.07;;;;;;;;;;6266296;28;20049;-69
2022/11/23 10:31:07;;;;;;;4.03;3.58;;;;;;;;;;6267073;28;20364;-71
2022/11/23 10:34:11;;;;;;;7.45;3.85;;;;;;;;;;6266672;28;20113;-71
2022/11/23 10:37:14;;;;;;;4.97;3.83;;;;;;;;;;6267991;28;20049;-71
2022/11/23 10:40:17;;;;;;;4.88;3.38;;;;;;;;;;6266263;28;20057;-70
2022/11/23 10:43:23;;;;;;;6.63;4.57;;;;;;;;;;6265487;28;20057;-71
2022/11/23 10:46:28;;;;;;;6.78;5.10;;;;;;;;;;6267977;28;20041;-69
2022/11/23 10:49:32;;;;;;;6.80;4.53;;;;;;;;;;6262480;28;20045;-72
2022/11/23 10:52:34;;;;;;;5.72;3.85;;;;;;;;;;6267170;28;20055;-70
2022/11/23 10:55:47;;;;;;;4.70;3.47;;;;;;;;;;6265488;28;20336;-71
2022/11/23 10:58:49;;;;;;;5.53;3.85;;;;;;;;;;6265184;28;20262;-70
2022/11/23 11:02:00;;;;;;;4.45;3.22;;;;;;;;;;6266558;28;20057;-72
2022/11/23 11:05:21;;;;;;;4.50;3.17;;;;;;;;;;6265448;28;20100;-72
2022/11/23 11:08:27;;;;;;;4.45;3.58;;;;;;;;;;6264745;28;20057;-76
2022/11/23 11:11:30;;;;;;;4.22;3.35;;;;;;;;;;6267959;28;20043;-73
2022/11/23 11:14:32;;;;;;;4.05;2.80;;;;;;;;;;6268054;28;20325;-75
2022/11/23 11:17:34;;;;;;;4.80;3.60;;;;;;;;;;6265521;28;20057;-74
2022/11/23 11:20:38;;;;;;;9.63;7.97;;;;;;;;;;6267914;28;20107;-73
2022/11/23 11:23:41;;;;;;;50.65;32.83;;;;;;;;;;6267386;28;20053;-74
2022/11/23 11:26:48;;;;;;;54.80;32.88;;;;;;;;;;6271758;28;20052;-76
2022/11/23 11:29:52;;;;;;;51.40;30.83;;;;;;;;;;6270961;28;20064;-73
2022/11/23 11:32:54;;;;;;;;;;;;;;;;;;6265837;28;20060;-68
2022/11/23 11:35:58;;;;;;;44.40;26.88;;;;;;;;;;6266299;28;19931;-75
2022/11/23 11:39:02;;;;;;;54.50;33.33;;;;;;;;;;6265531;28;20099;-71
2022/11/23 11:42:07;;;;;;;67.93;40.40;;;;;;;;;;6263181;28;20061;-71
2022/11/23 11:45:16;;;;;;;20.40;12.68;;;;;;;;;;6265681;28;20041;-71
2022/11/23 11:48:22;;;;;;;7.60;5.00;;;;;;;;;;6266594;28;20226;-72
2022/11/23 11:51:28;;;;;;;4.90;3.75;;;;;;;;;;6264847;28;20075;-72
2022/11/23 11:54:34;;;;;;;5.25;3.50;;;;;;;;;;6263641;28;20110;-71
2022/11/23 11:57:39;;;;;;;3.58;3.03;;;;;;;;;;6273798;28;20049;-73
2022/11/23 12:00:42;;;;;;;4.13;3.05;;;;;;;;;;6267481;28;20550;-71
2022/11/23 12:03:47;;;;;;;3.87;3.40;;;;;;;;;;6270057;28;20635;-73
2022/11/23 12:06:54;;;;;;;3.83;3.03;;;;;;;;;;6267110;28;20271;-73
2022/11/23 12:10:02;;;;;;;6.22;3.20;;;;;;;;;;6267546;28;20069;-71
2022/11/23 12:13:03;;;;;;;6.63;4.18;;;;;;;;;;6270083;28;20044;-70
2022/11/23 12:16:11;;;;;;;4.63;3.28;;;;;;;;;;6269235;28;20244;-72
2022/11/23 12:19:18;;;;;;;4.07;3.10;;;;;;;;;;6268935;28;20048;-71
2022/11/23 12:22:34;;;;;;;4.15;3.00;;;;;;;;;;6268757;28;20049;-71
2022/11/23 12:25:37;;;;;;;4.28;3.25;;;;;;;;;;6268643;28;20356;-68
2022/11/23 12:28:51;;;;;;;4.45;3.08;;;;;;;;;;6267064;28;20308;-67
2022/11/23 12:31:58;;;;;;;5.53;3.72;;;;;;;;;;6271186;28;20152;-70
2022/11/23 12:35:41;;;;;;;5.82;4.32;;;;;;;;;;6266380;28;20053;-68
2022/11/23 12:38:50;;;;;;;11.75;7.32;;;;;;;;;;6251608;28;20116;-71
2022/11/23 12:41:54;;;;;;;6.63;4.50;;;;;;;;;;6267491;28;20065;-71
2022/11/23 12:45:06;;;;;;;4.35;3.25;;;;;;;;;;6265778;28;20043;-71
2022/11/23 12:48:20;;;;;;;5.03;3.45;;;;;;;;;;6266580;28;20113;-71
2022/11/23 12:51:26;;;;;;;4.65;3.50;;;;;;;;;;6268598;28;20405;-69
2022/11/23 12:54:41;;;;;;;4.97;3.22;;;;;;;;;;6268582;28;20045;-71
2022/11/23 12:57:48;;;;;;;5.20;3.15;;;;;;;;;;6267233;28;20053;-70
2022/11/23 13:00:55;;;;;;;3.90;3.40;;;;;;;;;;6267298;28;20037;-71
2022/11/23 13:04:15;;;;;;;5.28;3.30;;;;;;;;;;6269190;28;20276;-70
2022/11/23 13:08:05;;;;;;;5.65;3.78;;;;;;;;;;6267056;28;20346;-71
2022/11/23 13:11:18;;;;;;;4.47;3.72;;;;;;;;;;6167316;28;20090;-70
2022/11/23 13:14:25;;;;;;;5.20;3.50;;;;;;;;;;6173802;28;20054;-71
2022/11/23 13:17:32;;;;;;;3.55;3.03;;;;;;;;;;6175377;28;20051;-71
2022/11/23 13:20:47;;;;;;;3.90;2.83;;;;;;;;;;6177381;28;20051;-71
2022/11/23 13:23:48;;;;;;;5.00;3.67;;;;;;;;;;6175143;28;20054;-70
2022/11/23 13:27:44;;;;;;;3.67;3.28;;;;;;;;;;6177466;28;20055;-69
2022/11/23 13:31:22;;;;;;;4.30;2.90;;;;;;;;;;6084419;29;20060;-69
2022/11/23 13:34:44;;;;;;;7.32;4.07;;;;;;;;;;6084176;29;20152;-69
2022/11/23 13:38:43;;;;;;;9.82;4.05;;;;;;;;;;6086031;29;20440;-70
2022/11/23 13:42:01;;;;;;;4.53;3.63;;;;;;;;;;6086555;29;20052;-71
2022/11/23 13:45:24;;;;;;;6.03;4.13;;;;;;;;;;6091920;29;20052;-71
2022/11/23 13:48:27;;;;;;;4.70;3.42;;;;;;;;;;6153400;28;20050;-71
2022/11/23 13:51:32;;;;;;;5.43;3.83;;;;;;;;;;6153567;28;20047;-70
2022/11/23 13:54:34;;;;;;;5.68;4.38;;;;;;;;;;6154986;28;20054;-71
2022/11/23 13:57:36;;;;;;;5.60;3.78;;;;;;;;;;6155604;28;20051;-71
2022/11/23 14:00:46;;;;;;;6.30;4.38;;;;;;;;;;6154672;28;20055;-71
2022/11/23 14:03:50;;;;;;;4.75;4.05;;;;;;;;;;6180569;28;20064;-72
2022/11/23 14:06:57;;;;;;;5.38;3.85;;;;;;;;;;6263864;28;20070;-70
2022/11/23 14:10:00;;;;;;;4.75;3.35;;;;;;;;;;6269834;28;20053;-68
2022/11/23 14:13:04;;;;;;;6.22;4.50;;;;;;;;;;6269425;28;20325;-71
2022/11/23 14:16:11;;;;;;;7.85;4.30;;;;;;;;;;6271166;28;20237;-71
2022/11/23 14:19:22;;;;;;;5.25;3.70;;;;;;;;;;6268278;28;20057;-70
2022/11/23 14:22:33;;;;;;;6.15;4.85;;;;;;;;;;6269978;28;20095;-71
2022/11/23 14:25:40;;;;;;;7.20;4.22;;;;;;;;;;6271757;28;20049;-70
2022/11/23 14:28:52;;;;;;;4.93;3.67;;;;;;;;;;6265872;28;20052;-71
2022/11/23 14:32:09;;;;;;;4.45;3.28;;;;;;;;;;6246164;28;20066;-69
2022/11/23 14:35:24;;;;;;;4.47;3.53;;;;;;;;;;6268562;28;20044;-71
2022/11/23 14:38:56;;;;;;;6.20;3.88;;;;;;;;;;6264653;28;20257;-71
2022/11/23 14:42:01;;;;;;;4.38;3.20;;;;;;;;;;6249813;28;20063;-71
2022/11/23 14:45:05;;;;;;;4.32;3.30;;;;;;;;;;6261439;28;20049;-71
2022/11/23 14:48:23;;;;;;;5.75;3.67;;;;;;;;;;6254592;28;20044;-71
2022/11/23 14:51:26;;;;;;;4.40;3.38;;;;;;;;;;6270134;28;20084;-71
2022/11/23 14:54:30;;;;;;;4.63;3.30;;;;;;;;;;6269457;28;20103;-71
2022/11/23 14:57:37;;;;;;;3.58;3.10;;;;;;;;;;6263619;28;20091;-71
2022/11/23 15:00:42;;;;;;;4.07;3.03;;;;;;;;;;6260478;28;21144;-71
2022/11/23 15:03:44;;;;;;;4.88;3.30;;;;;;;;;;6261574;28;20341;-71
2022/11/23 15:06:47;;;;;;;4.18;3.33;;;;;;;;;;6260618;28;20167;-69
2022/11/23 15:09:53;;;;;;;3.85;3.38;;;;;;;;;;6264996;28;20377;-71
2022/11/23 15:12:55;;;;;;;5.90;3.55;;;;;;;;;;6257884;28;20095;-71
2022/11/23 15:15:58;;;;;;;5.10;3.50;;;;;;;;;;6269177;28;20056;-71
2022/11/23 15:19:05;;;;;;;5.35;3.90;;;;;;;;;;6266731;28;20184;-68
2022/11/23 15:22:14;;;;;;;5.60;4.10;;;;;;;;;;6263732;28;20095;-70
2022/11/23 15:25:18;;;;;;;8.88;4.70;;;;;;;;;;6261935;28;20053;-70
2022/11/23 15:28:25;;;;;;;5.65;3.83;;;;;;;;;;6265349;28;20906;-70
2022/11/23 15:31:29;;;;;;;5.82;3.55;;;;;;;;;;6263813;28;20108;-71
2022/11/23 15:34:31;;;;;;;5.13;3.38;;;;;;;;;;6264464;28;20063;-71
2022/11/23 15:37:33;;;;;;;4.63;3.05;;;;;;;;;;6264544;28;20046;-71
2022/11/23 15:40:37;;;;;;;5.05;4.10;;;;;;;;;;6263103;28;20045;-71
2022/11/23 15:43:51;;;;;;;5.47;3.53;;;;;;;;;;6268281;28;20057;-69
2022/11/23 15:46:55;;;;;;;10.00;4.88;;;;;;;;;;6257999;28;20064;-69
2022/11/23 15:50:00;;;;;;;8.80;5.38;;;;;;;;;;6266766;28;20341;-68
2022/11/23 15:53:02;;;;;;;13.02;6.47;;;;;;;;;;6269529;28;20081;-68
2022/11/23 15:56:06;;;;;;;9.77;5.82;;;;;;;;;;6261768;28;20049;-69
2022/11/23 15:59:17;;;;;;;;;;;;;;;;;;6264314;28;20474;-70
2022/11/23 16:02:22;;;;;;;12.68;7.75;;;;;;;;;;6260836;28;19917;-70
2022/11/23 16:05:24;;;;;;;15.30;8.38;;;;;;;;;;6265806;28;20370;-70
2022/11/23 16:08:25;;;;;;;11.10;8.35;;;;;;;;;;6258854;28;20226;-70
2022/11/23 16:11:34;;;;;;;15.00;9.25;;;;;;;;;;6262019;28;20037;-69
2022/11/23 16:14:36;;;;;;;10.52;8.27;;;;;;;;;;6259657;28;20045;-70
2022/11/23 16:17:37;;;;;;;26.20;19.58;;;;;;;;;;6262105;28;20045;-67
2022/11/23 16:20:43;;;;;;;65.50;39.20;;;;;;;;;;6263089;28;20049;-69
2022/11/23 16:23:47;;;;;;;87.63;48.45;;;;;;;;;;6263689;28;20053;-69
2022/11/23 16:26:52;;;;;;;30.20;18.73;;;;;;;;;;6253412;28;20256;-70
2022/11/23 16:29:56;;;;;;;15.48;11.20;;;;;;;;;;6268994;28;20336;-70
2022/11/23 16:32:58;;;;;;;13.52;9.38;;;;;;;;;;6258167;28;20057;-70
2022/11/23 16:36:00;;;;;;;13.73;9.23;;;;;;;;;;6269459;28;20084;-70
2022/11/23 16:39:01;;;;;;;15.43;10.13;;;;;;;;;;6259753;28;20054;-68
2022/11/23 16:42:07;;;;;;;14.27;9.82;;;;;;;;;;6264323;28;20135;-65
2022/11/23 16:45:10;;;;;;;15.40;10.80;;;;;;;;;;6270616;28;20143;-72
2022/11/23 16:48:36;;;;;;;14.23;10.20;;;;;;;;;;6265966;28;20337;-68
2022/11/23 16:51:38;;;;;;;14.38;9.63;;;;;;;;;;6267121;28;20052;-70
2022/11/23 16:54:40;;;;;;;14.85;10.02;;;;;;;;;;6268228;28;20057;-69
2022/11/23 16:57:44;;;;;;;12.98;9.82;;;;;;;;;;6267708;28;20051;-65
2022/11/23 17:00:47;;;;;;;17.42;10.77;;;;;;;;;;6266466;28;20123;-69
2022/11/23 17:03:50;;;;;;;15.25;10.50;;;;;;;;;;6267333;28;20048;-69
2022/11/23 17:06:52;;;;;;;14.60;10.40;;;;;;;;;;6266959;28;20321;-70
2022/11/23 17:09:55;;;;;;;17.33;10.77;;;;;;;;;;6268033;28;20053;-70
2022/11/23 17:13:03;;;;;;;13.88;10.10;;;;;;;;;;6267709;28;20057;-70
2022/11/23 17:16:05;;;;;;;14.52;10.02;;;;;;;;;;6268667;28;20073;-70
2022/11/23 17:19:14;;;;;;;14.82;10.60;;;;;;;;;;6266709;28;20056;-70
2022/11/23 17:22:23;;;;;;;14.27;10.57;;;;;;;;;;6263095;28;20057;-69
2022/11/23 17:25:30;;;;;;;14.05;10.35;;;;;;;;;;6258173;28;20061;-69
2022/11/23 17:28:35;;;;;;;15.50;11.02;;;;;;;;;;6258413;28;20076;-67
2022/11/23 17:31:37;;;;;;;16.70;11.25;;;;;;;;;;6267328;28;20051;-69
2022/11/23 17:34:41;;;;;;;14.82;10.63;;;;;;;;;;6270440;28;20736;-69
2022/11/23 17:37:43;;;;;;;16.10;10.60;;;;;;;;;;6274076;28;20225;-69
2022/11/23 17:40:47;;;;;;;14.52;10.35;;;;;;;;;;6267601;28;20057;-69
2022/11/23 17:43:50;;;;;;;;;;;;;;;;;;6266223;28;20056;-70
2022/11/23 17:46:53;;;;;;;14.88;10.43;;;;;;;;;;6267478;28;19929;-69
2022/11/23 17:49:56;;;;;;;16.20;10.65;;;;;;;;;;6268713;28;20056;-70
2022/11/23 17:52:59;;;;;;;17.50;11.65;;;;;;;;;;6267695;28;20059;-70
2022/11/23 17:56:01;;;;;;;16.30;11.75;;;;;;;;;;6266065;28;20296;-68
2022/11/23 17:59:06;;;;;;;15.60;10.98;;;;;;;;;;6256686;28;20045;-69
2022/11/23 18:02:10;;;;;;;16.10;11.18;;;;;;;;;;6257675;28;20156;-74
2022/11/23 18:05:12;;;;;;;15.25;11.52;;;;;;;;;;6258726;28;20287;-68
2022/11/23 18:08:15;;;;;;;14.90;10.93;;;;;;;;;;6264077;28;20329;-70
2022/11/23 18:11:18;;;;;;;16.98;10.38;;;;;;;;;;6268172;28;20060;-70